Latest Weather Observations for Walgett

IDN60801

Issued at 8:02 pm EST Wednesday 5 August 2015 (issued every 30 minutes, with the page automatically refreshed every 10 minutes)

About weather observations | Map of weather stations | Latest weather observations for NSW | Other Formats
Station Details ID: 052088 Name: WALGETT AIRPORT AWS Lat: -30.04 Lon: 148.12 Height: 133.0 m
Data from the previous 72 hours. | See also: Recent months at Walgett
Date/Time
EST
Temp
°C
App
Temp
°C
Dew
Point
Rel
Hum
%
Delta-T
°C
Wind Press
QNH
hPa
Press
MSL
hPa
Rain
since 9 am
mm
Dir
 
Spd
km/h
Gust
km/h
Spd
kts
Gust
kts
05/08:00pm 9.5 6.0 1.4 57 3.4 NNW 9 11 5 6 1019.2 1019.2 0.0
05/07:30pm 10.5 7.1 1.9 55 3.6 NW 9 11 5 6 1019.1 1019.1 0.0
05/07:00pm 11.0 7.6 2.1 54 3.8 NW 9 9 5 5 1019.0 1019.0 0.0
05/06:30pm 11.4 8.4 2.2 53 4.0 NW 7 9 4 5 1018.8 1018.8 0.0
05/06:00pm 11.5 8.2 2.3 53 4.0 NW 9 9 5 5 1018.6 1018.6 0.0
05/05:30pm 12.1 8.3 1.7 49 4.5 W 11 15 6 8 1018.5 1018.5 0.0
05/05:00pm 13.1 7.7 1.5 45 5.0 WSW 19 24 10 13 1018.2 1018.2 0.0
05/04:30pm 13.5 8.1 1.2 43 5.3 W 19 24 10 13 1017.9 1017.9 0.0
05/04:00pm 13.8 8.2 1.5 43 5.3 W 20 30 11 16 1018.0 1018.0 0.0
05/03:30pm 14.1 8.6 1.7 43 5.4 WSW 20 30 11 16 1018.1 1018.1 0.0
05/03:00pm 14.1 9.5 1.4 42 5.5 WSW 15 22 8 12 1018.2 1018.2 0.0
05/02:30pm 14.3 9.0 1.9 43 5.5 SW 19 28 10 15 1018.2 1018.2 0.0
05/02:00pm 13.7 7.4 1.4 43 5.3 WSW 24 33 13 18 1018.2 1018.2 0.0
05/01:30pm 13.7 8.4 1.7 44 5.2 WSW 19 32 10 17 1018.6 1018.6 0.0
05/01:00pm 13.2 7.8 1.2 44 5.1 WSW 19 26 10 14 1019.2 1019.2 0.0
05/12:30pm 12.7 7.6 0.8 44 5.0 WSW 17 28 9 15 1019.7 1019.7 0.0
05/12:00pm 12.6 7.3 1.6 47 4.7 WSW 19 28 10 15 1020.2 1020.2 0.0
05/11:30am 12.2 6.6 1.2 47 4.7 WSW 20 30 11 16 1020.8 1020.8 0.0
05/11:00am 11.7 6.0 0.8 47 4.6 SW 20 30 11 16 1021.4 1021.4 0.0
05/10:30am 11.5 5.9 1.5 50 4.3 SW 20 28 11 15 1021.7 1021.7 0.0
05/10:00am 11.0 5.0 1.0 50 4.2 SW 22 33 12 18 1022.0 1022.0 0.0
05/09:30am 10.5 4.9 1.1 52 3.9 SSW 20 30 11 16 1021.9 1021.9 0.0
05/09:00am 10.0 5.0 1.4 55 3.6 SW 17 24 9 13 1022.0 1022.0 0.0
05/08:30am 8.1 4.9 3.0 70 2.2 SW 9 13 5 7 1021.9 1021.9 0.0
05/08:00am 6.4 3.1 2.3 75 1.7 WSW 9 11 5 6 1021.8 1021.8 0.0
05/07:30am 4.6 1.2 1.8 82 1.1 W 9 11 5 6 1021.7 1021.7 0.0
05/07:00am 4.2 0.7 1.2 81 1.2 W 9 13 5 7 1021.5 1021.5 0.0
05/06:30am 5.0 1.6 2.0 81 1.2 W 9 11 5 6 1021.4 1021.4 0.0
05/06:00am 5.2 2.2 2.2 81 1.2 W 7 9 4 5 1021.3 1021.3 0.0
05/05:30am 4.9 1.9 1.9 81 1.2 W 7 9 4 5 1020.9 1020.9 0.0
05/05:00am 5.3 2.3 2.0 79 1.3 W 7 11 4 6 1020.7 1020.7 0.0
05/04:30am 5.8 2.5 2.3 78 1.4 WSW 9 11 5 6 1020.8 1020.8 0.0
05/04:00am 6.1 2.8 2.6 78 1.4 WSW 9 11 5 6 1021.0 1021.0 0.0
05/03:30am 6.3 3.5 3.1 80 1.3 WSW 7 9 4 5 1021.1 1021.1 0.0
05/03:00am 6.4 3.8 3.2 80 1.3 SSE 6 9 3 5 1021.4 1021.4 0.0
05/02:30am 6.5 3.6 2.8 77 1.5 W 7 9 4 5 1021.8 1021.8 0.0
05/02:00am 6.5 4.6 2.9 78 1.5 WNW 2 9 1 5 1022.0 1022.0 0.0
05/01:30am 6.5 5.0 2.9 78 1.5 CALM 0 0 0 0 1022.1 1022.1 0.0
05/01:00am 6.6 5.1 3.2 79 1.4 CALM 0 0 0 0 1022.2 1022.2 0.0
05/12:30am 6.7 5.1 2.6 75 1.7 CALM 0 0 0 0 1022.1 1022.1 0.0
05/12:00am 6.4 4.9 3.2 80 1.3 CALM 0 0 0 0 1022.2 1022.2 0.0
 
Date/Time
EST
Temp
°C
App
Temp
°C
Dew
Point
Rel
Hum
%
Delta-T
°C
Wind Press
QNH
hPa
Press
MSL
hPa
Rain
since 9 am
mm
Dir
 
Spd
km/h
Gust
km/h
Spd
kts
Gust
kts
04/11:30pm 6.4 4.8 2.5 76 1.6 CALM 0 0 0 0 1022.3 1022.3 0.0
04/11:00pm 6.1 4.6 2.9 80 1.3 CALM 0 0 0 0 1022.5 1022.6 0.0
04/10:30pm 6.2 3.4 2.1 75 1.7 ESE 6 7 3 4 1022.4 1022.4 0.0
04/10:00pm 5.9 4.2 1.6 74 1.7 CALM 0 0 0 0 1022.7 1022.8 0.0
04/09:30pm 5.3 2.4 1.6 77 1.5 SE 6 9 3 5 1022.8 1022.9 0.0
04/09:00pm 5.7 3.8 0.5 69 2.0 CALM 0 0 0 0 1022.8 1022.9 0.0
04/08:30pm 4.6 1.6 0.6 75 1.6 SSE 6 7 3 4 1022.8 1022.9 0.0
04/08:00pm 4.2 0.7 -1.0 69 1.9 SSE 7 9 4 5 1022.7 1022.8 0.0
04/07:30pm 5.1 1.7 -0.9 65 2.3 SSE 7 9 4 5 1022.7 1022.8 0.0
04/07:00pm 6.5 2.8 -0.2 62 2.6 S 9 9 5 5 1022.6 1022.7 0.0
04/06:30pm 7.1 3.8 0.1 61 2.8 SSE 7 9 4 5 1022.4 1022.4 0.0
04/06:00pm 8.3 4.7 0.3 57 3.2 S 9 13 5 7 1022.3 1022.3 0.0
04/05:30pm 10.0 5.2 0.3 51 4.0 SSW 15 19 8 10 1022.3 1022.3 0.0
04/05:00pm 11.3 5.8 0.4 47 4.5 SSW 19 24 10 13 1022.3 1022.3 0.0
04/04:30pm 11.9 6.4 0.7 46 4.7 SSW 19 26 10 14 1022.1 1022.1 0.0
04/04:00pm 12.0 6.3 0.5 45 4.8 SW 20 30 11 16 1022.1 1022.1 0.0
04/03:30pm 12.1 6.4 0.8 46 4.8 SSW 20 28 11 15 1022.2 1022.2 0.0
04/03:00pm 12.4 7.4 1.4 47 4.7 SSW 17 28 9 15 1022.4 1022.4 0.0
04/02:30pm 12.2 6.9 2.1 50 4.4 SSW 19 30 10 16 1022.4 1022.4 0.0
04/02:00pm 12.3 7.1 2.2 50 4.4 SW 19 24 10 13 1022.6 1022.7 0.0
04/01:30pm 12.0 7.6 2.7 53 4.1 SW 15 20 8 11 1023.0 1023.1 0.0
04/01:00pm 11.8 6.5 2.0 51 4.2 SSW 19 32 10 17 1023.4 1023.5 0.0
04/12:30pm 12.1 7.3 2.8 53 4.1 SW 17 22 9 12 1023.5 1023.6 0.0
04/12:00pm 11.8 7.0 2.8 54 3.9 SSW 17 26 9 14 1024.1 1024.2 0.0
04/11:30am 12.3 8.0 3.0 53 4.1 SSW 15 24 8 13 1024.5 1024.6 0.0
04/11:00am 12.0 7.2 2.7 53 4.1 S 17 28 9 15 1024.9 1025.0 0.0
04/10:30am 11.8 7.6 3.8 58 3.6 S 15 20 8 11 1025.1 1025.1 0.0
04/10:00am 11.3 8.0 4.3 62 3.1 S 11 15 6 8 1025.1 1025.1 0.0
04/09:30am 10.6 6.3 5.2 69 2.5 S 17 20 9 11 1025.1 1025.1 0.0
04/09:00am 10.5 6.8 6.1 74 2.0 S 15 22 8 12 1024.9 1025.0 0.0
04/08:30am 9.6 6.2 6.0 78 1.7 S 13 17 7 9 1024.7 1024.8 0.0
04/08:00am 7.1 4.2 4.9 86 1.0 S 9 9 5 5 1024.6 1024.7 0.0
04/07:30am 4.8 3.4 3.5 91 0.5 CALM 0 0 0 0 1024.4 1024.5 0.0
04/07:00am 3.3 0.4 1.7 89 0.6 SSW 6 7 3 4 1024.0 1024.1 0.0
04/06:30am 4.8 2.0 3.3 90 0.6 SSW 7 9 4 5 1024.0 1024.1 0.0
04/06:00am 5.3 2.1 2.8 84 1.0 S 9 11 5 6 1023.4 1023.5 0.0
04/05:30am 5.8 2.2 3.1 83 1.1 S 11 13 6 7 1023.3 1023.4 0.0
04/05:00am 7.3 3.5 3.7 78 1.5 S 13 15 7 8 1023.2 1023.3 0.0
04/04:30am 9.3 5.7 5.1 75 1.9 SSW 13 17 7 9 1023.0 1023.1 0.0
04/04:00am 9.3 5.8 5.5 77 1.7 SSW 13 17 7 9 1023.1 1023.2 0.0
04/03:30am 9.3 5.4 5.5 77 1.7 S 15 19 8 10 1022.9 1023.0 0.0
04/03:00am 9.1 5.1 5.1 76 1.8 S 15 19 8 10 1022.9 1023.0 0.0
04/02:30am 9.4 4.0 4.4 71 2.2 S 22 28 12 15 1023.0 1023.1 0.0
04/02:00am 9.5 5.0 4.3 70 2.3 SSW 17 24 9 13 1022.9 1023.0 0.0
04/01:30am 8.3 4.5 3.9 74 1.9 SSW 13 15 7 8 1022.9 1023.0 0.0
04/01:00am 8.7 4.9 3.9 72 2.1 SSW 13 19 7 10 1023.1 1023.2 0.0
04/12:30am 7.7 3.4 3.0 72 2.0 SSW 15 17 8 9 1023.1 1023.2 0.0
04/12:00am 8.9 4.6 3.3 68 2.4 SSW 15 20 8 11 1023.1 1023.2 0.0
 
Date/Time
EST
Temp
°C
App
Temp
°C
Dew
Point
Rel
Hum
%
Delta-T
°C
Wind Press
QNH
hPa
Press
MSL
hPa
Rain
since 9 am
mm
Dir
 
Spd
km/h
Gust
km/h
Spd
kts
Gust
kts
03/11:30pm 9.1 4.4 3.3 67 2.5 SSW 17 22 9 12 1023.1 1023.2 0.0
03/11:00pm 8.1 3.5 3.8 74 1.9 S 17 19 9 10 1023.1 1023.2 0.0
03/10:30pm 6.3 2.3 2.6 77 1.5 S 13 17 7 9 1023.1 1023.2 0.0
03/10:00pm 6.0 1.9 2.1 76 1.6 S 13 15 7 8 1023.2 1023.3 0.0
03/09:30pm 6.0 2.2 1.9 75 1.7 S 11 13 6 7 1023.2 1023.3 0.0
03/09:00pm 6.5 3.2 2.2 74 1.8 S 9 11 5 6 1023.2 1023.3 0.0
03/08:30pm 7.2 3.9 2.3 71 2.0 S 9 11 5 6 1023.2 1023.3 0.0
03/08:00pm 7.3 3.6 2.4 71 2.0 S 11 11 6 6 1022.9 1023.0 0.0
03/07:30pm 8.3 4.9 2.1 65 2.6 SSW 9 11 5 6 1022.7 1022.8 0.0
03/07:00pm 9.8 6.2 2.9 62 3.0 SSW 11 17 6 9 1022.6 1022.7 0.0
03/06:30pm 11.2 7.6 3.0 57 3.6 SSW 11 13 6 7 1022.2 1022.2 0.0
03/06:00pm 12.3 8.3 3.0 53 4.1 SW 13 15 7 8 1021.8 1021.8 0.0
03/05:30pm 13.7 9.4 3.2 49 4.7 SW 15 19 8 10 1021.4 1021.4 0.0
03/05:00pm 15.1 10.0 3.3 45 5.4 SW 19 26 10 14 1021.1 1021.1 0.0
03/04:30pm 15.7 10.7 3.8 45 5.5 SW 19 32 10 17 1020.8 1020.8 0.0
03/04:00pm 16.0 10.9 4.1 45 5.5 SW 20 30 11 16 1020.7 1020.7 0.0
03/03:30pm 16.3 11.1 3.7 43 5.9 SW 20 32 11 17 1020.6 1020.6 0.0
03/03:00pm 16.4 11.3 4.1 44 5.8 SW 20 32 11 17 1020.6 1020.6 0.0
03/02:30pm 16.4 11.2 3.8 43 5.9 SW 20 30 11 16 1020.6 1020.6 0.0
03/02:00pm 16.0 10.1 4.1 45 5.5 SW 24 33 13 18 1020.8 1020.8 0.0
03/01:30pm 15.6 9.7 4.0 46 5.4 SSW 24 33 13 18 1021.1 1021.1 0.0
03/01:00pm 15.3 9.7 3.5 45 5.4 SW 22 32 12 17 1021.5 1021.5 0.0
03/12:30pm 15.0 8.8 4.1 48 5.1 SSW 26 35 14 19 1021.7 1021.7 0.0
03/12:00pm 14.3 8.0 3.7 49 4.8 SSW 26 35 14 19 1022.0 1022.0 0.0
03/11:30am 14.4 8.5 4.1 50 4.8 S 24 33 13 18 1022.5 1022.6 0.0
03/11:00am 13.5 6.4 3.6 51 4.5 SSW 30 41 16 22 1022.8 1022.9 0.0
03/10:30am 13.1 7.3 4.3 55 4.0 SSW 24 35 13 19 1023.1 1023.2 0.0
03/10:00am 12.4 7.3 4.1 57 3.8 SSW 20 30 11 16 1023.2 1023.3 0.0
03/09:30am 10.9 6.0 4.1 63 3.1 SW 19 24 10 13 1023.0 1023.1 0.0
03/09:00am 10.0 5.9 4.6 69 2.4 SSW 15 20 8 11 1022.8 1022.9 0.0
03/08:30am 8.7 4.9 4.1 73 2.0 SSW 13 20 7 11 1022.5 1022.6 0.0
03/08:00am 7.3 3.4 3.4 76 1.7 SSW 13 19 7 10 1022.2 1022.2 0.0
03/07:30am 5.9 2.3 2.7 80 1.3 SW 11 17 6 9 1021.8 1021.8 0.0
03/07:00am 6.0 1.2 2.6 79 1.4 SSW 17 19 9 10 1021.2 1021.2 0.0
03/06:30am 6.2 1.5 3.0 80 1.3 SSW 17 22 9 12 1020.9 1020.9 0.0
03/06:00am 6.7 1.6 3.1 78 1.5 SSW 19 24 10 13 1020.6 1020.6 0.0
03/05:30am 7.2 2.0 3.3 76 1.7 SSW 20 26 11 14 1020.3 1020.3 0.0
03/05:00am 7.4 2.4 3.6 77 1.6 SSW 19 24 10 13 1020.0 1020.0 0.0
03/04:30am 8.1 3.1 4.5 78 1.6 SSW 20 33 11 18 1019.8 1019.8 0.0
03/04:00am 8.4 3.1 5.2 80 1.4 SSW 22 32 12 17 1019.5 1019.5 0.0
03/03:30am 8.7 3.1 5.6 81 1.4 SSW 24 32 13 17 1019.3 1019.3 0.0
03/03:00am 8.9 3.8 5.8 81 1.4 SSW 22 30 12 16 1019.1 1019.1 0.0
03/02:30am 9.5 4.4 6.0 79 1.6 SSW 22 30 12 16 1019.0 1019.0 0.0
03/02:00am 10.0 5.3 6.2 77 1.8 SSW 20 28 11 15 1019.0 1019.0 0.0
03/01:30am 10.1 5.5 6.3 77 1.8 SSW 20 28 11 15 1019.2 1019.2 0.0
03/01:00am 10.6 6.0 6.4 75 2.0 SSW 20 32 11 17 1019.3 1019.3 0.0
03/12:30am 10.9 5.6 6.6 75 2.0 SSW 24 35 13 19 1019.3 1019.3 0.0
03/12:00am 11.4 6.1 6.9 74 2.2 SSW 24 35 13 19 1019.3 1019.3 0.0
 
Date/Time
EST
Temp
°C
App
Temp
°C
Dew
Point
Rel
Hum
%
Delta-T
°C
Wind Press
QNH
hPa
Press
MSL
hPa
Rain
since 9 am
mm
Dir
 
Spd
km/h
Gust
km/h
Spd
kts
Gust
kts
02/11:30pm 11.7 6.9 7.2 74 2.2 SSW 22 32 12 17 1019.1 1019.1 0.0
02/11:00pm 12.4 6.9 7.5 72 2.4 SSW 26 35 14 19 1019.0 1019.0 0.0
02/10:30pm 13.0 7.9 7.7 70 2.6 S 24 33 13 18 1018.8 1018.8 0.0
02/10:00pm 13.9 7.8 8.1 68 2.9 S 30 37 16 20 1018.4 1018.4 0.0
02/09:30pm 15.2 8.9 9.1 67 3.1 S 32 39 17 21 1018.0 1018.0 0.0
02/09:00pm 16.3 10.5 8.0 58 4.2 SSW 28 39 15 21 1017.5 1017.5 0.0
02/08:48pm 17.1 13.0 8.0 55 4.6 WSW 19 37 10 20 1017.0 1017.1 0.0
02/08:30pm 14.4 12.4 7.0 61 3.6 NW 7 9 4 5 1016.1 1016.2 0.0

Other Formats:

Comma delimited format used in spreadsheet applications
http://www.bom.gov.au/fwo/IDN60801/IDN60801.95715.axf

JavaScript Object Notation format (JSON) in row-major order
http://www.bom.gov.au/fwo/IDN60801/IDN60801.95715.json